Flight Track Log - Related Links

Times and Time Zones

All times are in EDT time to prevent confusion due to time zone crossing. See the N510SR flight status page for this flight to view local times or setup timezone preferences in your user account.

Time Position Orientation Groundspeed Altitude Reporting Facility
EDT Latitude Longitude Course Direction KTS MPH feet Rate Location/Type
Sun 02:23:18 PM 26.6061 -77.2839 326° Northwest 387 445 10,800  Level Miami Center
Sun 02:24:18 PM 26.6833 -77.3469 324° Northwest 360 414 12,100 1,750 Climbing Miami Center
Sun 02:25:18 PM 26.7667 -77.4008 330° Northwest 347 399 14,300 2,300 Climbing Miami Center
Sun 02:26:18 PM 26.8603 -77.4572 332° Northwest 359 413 16,700 2,350 Climbing Miami Center
Sun 02:27:00 PM 26.9510 -77.5299 326° Northwest  Level FlightAware Approximate
Sun 02:27:18 PM 26.9772 -77.4764 352° North 366 421 19,000  Level Miami Center
Sun 02:28:18 PM 27.0858 -77.4911 353° North 378 435 21,100 1,750 Climbing Miami Center
Sun 02:29:18 PM 27.1944 -77.5033 354° North 390 449 22,500 1,500 Climbing Miami Center
Sun 02:30:18 PM 27.3114 -77.5203 353° North 411 473 24,100 1,650 Climbing Miami Center
Sun 02:31:18 PM 27.4283 -77.5281 357° North 411 473 25,800 1,600 Climbing Miami Center
Sun 02:32:18 PM 27.5472 -77.5614 346° North 417 480 27,300 1,400 Climbing Miami Center
Sun 02:33:18 PM 27.6725 -77.5692 357° North 429 494 28,600 1,250 Climbing Miami Center
Sun 02:34:18 PM 27.7892 -77.5889 351° North 436 502 29,800 1,350 Climbing Miami Center
Sun 02:35:18 PM 27.9144 -77.6036 354° North 443 510 31,300 1,750 Climbing Miami Center
Sun 02:36:18 PM 28.0333 -77.6233 352° North 440 506 33,300 2,100 Climbing Miami Center
Sun 02:37:18 PM 28.1606 -77.6406 353° North 433 498 35,500 1,700 Climbing Miami Center
Sun 02:38:18 PM 28.2375 -77.7167 319° Northwest 378 435 36,700 950 Climbing Miami Center
Sun 02:39:18 PM 28.2994 -77.8089 307° West 374 430 37,400 950 Climbing Miami Center
Sun 02:40:18 PM 28.3739 -77.9017 312° West 379 436 38,600 800 Climbing Miami Center
Sun 02:41:18 PM 28.4464 -77.9944 312° West 389 448 39,000 200 Climbing Miami Center
Sun 02:42:18 PM 28.5186 -78.0872 312° West 389 448 39,000 600 Level Miami Center
Sun 02:43:18 PM 28.6036 -78.1569 324° Northwest 385 443 40,200 850 Climbing Miami Center
Sun 02:44:18 PM 28.7183 -78.1725 353° North 395 455 40,700 400 Climbing Miami Center
Sun 02:45:18 PM 28.8353 -78.1667 North 399 459 41,000 150 Climbing Miami Center
Sun 02:46:18 PM 28.9542 -78.1608 North 406 467 41,000  Level Miami Center
Sun 02:47:18 PM 29.0753 -78.1553 North 424 488 41,000  Level Miami Center
Sun 02:48:18 PM 29.1942 -78.1494 North 424 488 41,000  Level Miami Center
Sun 02:49:18 PM 29.3133 -78.1461 North 424 488 41,000  Level Miami Center
Sun 02:50:18 PM 29.4281 -78.1378 North 422 486 41,000  Level Miami Center
Sun 02:51:18 PM 29.5469 -78.1322 North 422 486 41,000  Level Miami Center
Sun 02:52:18 PM 29.6658 -78.1264 North 422 486 41,000  Level Miami Center
Sun 02:53:18 PM 29.7889 -78.1278 359° North 417 480 41,000  Level Miami Center
Sun 02:54:18 PM 29.8933 -78.1100 North 417 480 41,000  Level Miami Center
Sun 02:55:21 PM 30.0200 -78.1047 North 425 489 41,000  Level Jacksonville Center
Sun 02:56:21 PM 30.1408 -78.0989 North 430 495 41,000  Level Jacksonville Center
Sun 02:57:21 PM 30.2556 -78.0956 North 419 482 41,000  Level Jacksonville Center
Sun 02:58:21 PM 30.3806 -78.0892 North 420 483 41,000  Level Jacksonville Center
Sun 02:59:21 PM 30.4972 -78.0811 North 426 490 41,000  Level Jacksonville Center
Sun 03:00:21 PM 30.6181 -78.0772 North 430 495 41,000  Level Jacksonville Center
Sun 03:01:21 PM 30.7472 -78.0708 North 439 505 41,000  Level Jacksonville Center
Sun 03:02:21 PM 30.8658 -78.0647 North 433 498 41,000  Level Jacksonville Center
Sun 03:03:21 PM 30.9806 -78.0564 North 426 490 41,000  Level Jacksonville Center
Sun 03:04:21 PM 31.0947 -78.0433 North 431 496 41,000  Level Jacksonville Center
Sun 03:05:21 PM 31.2178 -78.0369 North 436 502 41,000  Level Jacksonville Center
Sun 03:06:21 PM 31.3389 -78.0381 360° North 436 502 41,000  Level Jacksonville Center
Sun 03:07:21 PM 31.4592 -78.0219 North 436 502 41,000  Level Jacksonville Center
Sun 03:08:21 PM 31.5781 -78.0181 North 436 502 41,000  Level Jacksonville Center
Sun 03:09:21 PM 31.7031 -78.0142 North 436 502 41,000  Level Jacksonville Center
Sun 03:10:21 PM 31.8242 -78.0125 North 441 507 41,000  Level Jacksonville Center
Sun 03:11:21 PM 31.9489 -78.0036 North 441 507 41,000  Level Jacksonville Center
Sun 03:12:21 PM 32.0742 -77.9992 North 441 507 41,000  Level Jacksonville Center
Sun 03:13:21 PM 32.1989 -77.9903 North 441 507 41,000  Level Jacksonville Center
Sun 03:14:21 PM 32.3217 -77.9811 North 441 507 41,000  Level Jacksonville Center
Sun 03:15:21 PM 32.4469 -77.9792 North 441 507 41,000  Level Jacksonville Center
Sun 03:16:21 PM 32.5717 -77.9675 North 441 507 41,000  Level Jacksonville Center
Sun 03:17:21 PM 32.6947 -77.9658 North 441 507 41,000  Level Jacksonville Center
Sun 03:18:21 PM 32.8197 -77.9564 North 441 507 41,000  Level Jacksonville Center
Sun 03:19:21 PM 32.9444 -77.9497 North 441 507 41,000  Level Jacksonville Center
Sun 03:20:21 PM 33.0675 -77.9453 North 441 507 41,000 36 Level Jacksonville Center
Sun 03:22:07 PM 33.2978 -77.9319 North 458 527 41,100  Climbing Washington Center
Sun 03:23:08 PM 33.4231 -77.9253 North 458 527 41,000 -50 Descending Washington Center
Sun 03:24:08 PM 33.5442 -77.9214 North 452 520 41,000  Level Washington Center
Sun 03:25:07 PM 33.6675 -77.9147 North 442 509 41,000  Level Washington Center
Sun 03:26:08 PM 33.7906 -77.9056 North 442 509 41,000 50 Level Washington Center
Sun 03:27:08 PM 33.9075 -77.8989 North 448 516 41,100 50 Climbing Washington Center
Sun 03:28:09 PM 34.0308 -77.8947 North 448 516 41,100  Level Washington Center
Sun 03:29:09 PM 34.1542 -77.8856 North 448 516 41,100  Level Washington Center
Sun 03:30:07 PM 34.2772 -77.8792 North 443 510 41,100 -50 Level Washington Center
Sun 03:31:09 PM 34.4025 -77.8775 North 443 510 41,000 -50 Descending Washington Center
Sun 03:32:07 PM 34.5256 -77.8758 North 437 503 41,000  Level Washington Center
Sun 03:33:07 PM 34.6467 -77.8742 North 437 503 41,000  Level Washington Center
Sun 03:34:08 PM 34.7719 -77.8728 North 437 503 41,000 50 Level Washington Center
Sun 03:35:07 PM 34.8908 -77.8658 North 432 497 41,100 50 Climbing Washington Center
Sun 03:36:07 PM 35.0139 -77.8667 360° North 432 497 41,100  Level Washington Center
Sun 03:37:08 PM 35.1372 -77.8653 North 438 504 41,100  Level Washington Center
Sun 03:38:09 PM 35.2625 -77.8611 North 438 504 41,100  Level Washington Center
Sun 03:39:07 PM 35.3875 -77.8594 North 438 504 41,100  Level Washington Center
Sun 03:40:07 PM 35.5128 -77.8581 North 438 504 41,100  Level Washington Center
Sun 03:41:08 PM 35.6311 -77.8869 349° North 438 504 41,100  Level Washington Center
Sun 03:42:09 PM 35.7167 -77.9967 314° West 412 474 41,100  Level Washington Center
Sun 03:43:10 PM 35.8042 -78.1122 313° West 433 498 41,100  Level Washington Center
Sun 03:44:07 PM 35.8994 -78.2356 314° West 446 513 41,100  Level Washington Center
Sun 03:45:08 PM 35.9956 -78.3236 323° Northwest 446 513 41,100  Level Washington Center
Sun 03:46:07 PM 36.1142 -78.3328 356° North 415 478 41,100  Level Washington Center
Sun 03:47:08 PM 36.2342 -78.2933 15° North 406 467 41,100  Level Washington Center
Sun 03:48:09 PM 36.3497 -78.2533 16° North 421 484 41,100  Level Washington Center
Sun 03:49:07 PM 36.4697 -78.2083 17° North 434 499 41,100 -51 Level Washington Center
Sun 03:50:07 PM 36.5894 -78.1683 15° North 439 505 41,000  Descending Washington Center
Sun 03:51:08 PM 36.7108 -78.1517 North 433 498 41,100 50 Climbing Washington Center
Sun 03:52:08 PM 36.8336 -78.1661 355° North 433 498 41,100  Level Washington Center
Sun 03:53:09 PM 36.9567 -78.1728 358° North 433 498 41,100  Level Washington Center
Sun 03:54:07 PM 37.0814 -78.1847 356° North 439 505 41,100  Level Washington Center
Sun 03:55:08 PM 37.1939 -78.1964 355° North 439 505 41,100 -49 Level Washington Center
Sun 03:56:09 PM 37.3169 -78.1981 359° North 439 505 41,000  Descending Washington Center
Sun 03:57:09 PM 37.4172 -78.0892 41° Northeast 395 455 41,100 50 Climbing Washington Center
Sun 03:58:08 PM 37.4764 -77.9469 62° Northeast 395 455 41,100  Level Washington Center
Sun 03:59:09 PM 37.5519 -77.8183 53° Northeast 417 480 41,100  Level Washington Center
Sun 04:00:09 PM 37.6497 -77.7164 40° Northeast 439 505 41,100 -51 Level Washington Center
Sun 04:01:07 PM 37.7536 -77.6247 35° Northeast 450 518 41,000  Descending Washington Center
Sun 04:02:07 PM 37.8594 -77.5303 35° Northeast 455 524 41,100 50 Climbing Washington Center
Sun 04:03:08 PM 37.9631 -77.4356 36° Northeast 455 524 41,100 -50 Level Washington Center
Sun 04:04:07 PM 38.0603 -77.3428 37° Northeast 455 524 41,000 -1,200 Descending Washington Center
Sun 04:05:08 PM 38.1681 -77.2450 35° Northeast 463 533 38,700 -2,380 Descending Washington Center
Sun 04:06:08 PM 38.2778 -77.1444 36° Northeast 469 540 36,200 -2,430 Descending Washington Center
Sun 04:07:09 PM 38.3833 -77.0458 36° Northeast 469 540 33,800 -2,471 Descending Washington Center
Sun 04:08:07 PM 38.5072 -76.9792 23° Northeast 469 540 31,300 -1,881 Descending Washington Center
Sun 04:09:07 PM 38.6289 -76.9206 21° North 469 540 30,100 -590 Descending Washington Center
Sun 04:10:09 PM 38.7483 -76.8614 21° North 469 540 30,100 -885 Level Washington Center
Sun 04:11:09 PM 38.8656 -76.8019 22° Northeast 459 528 28,300 -1,500 Descending Washington Center
Sun 04:12:09 PM 38.9744 -76.7503 20° North 433 498 27,100 -610 Descending Washington Center
Sun 04:13:07 PM 39.0772 -76.6853 26° Northeast 413 475 27,100 -661 Level Washington Center
Sun 04:14:07 PM 39.1614 -76.5847 43° Northeast 407 468 25,800 -992 Descending Washington Center
Sun 04:15:08 PM 39.2333 -76.4706 51° Northeast 402 463 25,100 -843 Descending Washington Center
Sun 04:16:08 PM 39.3047 -76.3586 50° Northeast 397 457 24,100 -496 Descending Washington Center
Sun 04:17:09 PM 39.3764 -76.2494 50° Northeast 397 457 24,100 -934 Level Washington Center
Sun 04:18:10 PM 39.4497 -76.1372 50° Northeast 403 464 22,200 -1,858 Descending Washington Center
Sun 04:20:26 PM 39.6000 -75.9000 51° Northeast 368 423 18,000 -1,842 Descending Philadelphia TRACON
Sun 04:21:32 PM 39.6833 -75.7833 47° Northeast 355 409 16,000 -1,800 Descending Philadelphia TRACON
Sun 04:22:26 PM 39.7333 -75.7000 52° Northeast 352 405 14,400 -1,579 Descending Philadelphia TRACON
Sun 04:23:26 PM 39.8000 -75.6000 49° Northeast 339 390 13,000 -700 Descending Philadelphia TRACON
Sun 04:24:26 PM 39.8667 -75.5333 37° Northeast 337 388 13,000  Level Philadelphia TRACON
Sun 04:25:32 PM 39.9500 -75.4500 37° Northeast 334 384 13,000  Level Philadelphia TRACON
Sun 04:26:32 PM 40.0333 -75.3833 31° Northeast 336 387 13,000  Level Philadelphia TRACON
Sun 04:27:32 PM 40.1000 -75.3167 37° Northeast 333 383 13,000 -150 Level Philadelphia TRACON
Sun 04:28:32 PM 40.1833 -75.2500 31° Northeast 334 384 12,700 -947 Descending Philadelphia TRACON
Sun 04:29:26 PM 40.2500 -75.1833 37° Northeast 316 364 11,200 -1,636 Descending Philadelphia TRACON
Sun 04:30:33 PM 40.3167 -75.1167 37° Northeast 279 321 9,400 -1,475 Descending Philadelphia TRACON
Sun 04:31:28 PM 40.3667 -75.0500 45° Northeast 270 311 8,200 -1,200 Descending New York TRACON
Sun 04:32:28 PM 40.4167 -74.9833 45° Northeast 267 307 7,100 -1,250 Descending New York TRACON
Sun 04:33:28 PM 40.4333 -74.9000 75° East 262 302 5,700 -1,450 Descending New York TRACON
Sun 04:34:28 PM 40.4833 -74.8167 52° Northeast 258 297 4,200 -800 Descending New York TRACON
Sun 04:35:28 PM 40.5500 -74.7833 21° North 250 288 4,100 -50 Descending New York TRACON
Sun 04:36:28 PM 40.6000 -74.7333 37° Northeast 243 280 4,100  Level New York TRACON
Sun 04:37:28 PM 40.6500 -74.6833 37° Northeast 232 267 4,100  Level New York TRACON
Sun 04:38:28 PM 40.7167 -74.6500 21° North 250 288 4,100 -100 Level New York TRACON
Sun 04:39:28 PM 40.7833 -74.6000 30° Northeast 250 288 3,900 -550 Descending New York TRACON
Sun 04:40:28 PM 40.8167 -74.5333 57° Northeast 256 295 3,000 -450 Descending New York TRACON
Sun 04:41:28 PM 40.8667 -74.4667 45° Northeast 204 235 3,000 -500 Level New York TRACON
Sun 04:42:28 PM 40.8667 -74.4167 90° East 164 189 2,000 -850 Descending New York TRACON
Sun 04:43:28 PM 40.8500 -74.3833 123° Southeast 145 167 1,300 -700 Descending New York TRACON

Login

Don't have an account? Register now (free) for customized features, flight alerts, and more!